Time;durP1;ratioP1;P1;durP2;ratioP2;P2;SDS_P1;SDS_P2;PMS_P1;PMS_P2;Temp;Humidity;BMP_temperature;BMP_pressure;BME280_temperature;BME280_humidity;BME280_pressure;Samples;Min_cycle;Max_cycle;Signal;HPM_P1;HPM_P2
2021/11/01 00:01:27;;;;;;;11.30;2.63;;;;;;;9.37;97.80;99852.81;5116671;28;20447;-36
2021/11/01 00:03:52;;;;;;;19.27;3.50;;;;;;;9.27;97.38;99842.69;5116417;28;20026;-36
2021/11/01 00:06:18;;;;;;;13.70;2.80;;;;;;;9.16;97.38;99828.25;5116677;28;20020;-36
2021/11/01 00:08:45;;;;;;;19.70;3.33;;;;;;;9.34;97.19;99861.44;5117084;28;20047;-36
2021/11/01 00:11:10;;;;;;;17.40;2.63;;;;;;;9.33;97.58;99859.81;5116113;28;20273;-36
2021/11/01 00:13:35;;;;;;;11.47;2.60;;;;;;;9.27;97.17;99850.78;5116537;28;20031;-36
2021/11/01 00:16:01;;;;;;;13.20;2.90;;;;;;;9.32;97.07;99867.09;5115884;28;20364;-36
2021/11/01 00:18:26;;;;;;;12.60;2.57;;;;;;;9.27;96.69;99857.03;5098010;28;20074;-36
2021/11/01 00:20:52;;;;;;;9.52;2.38;;;;;;;9.31;97.41;99854.63;5115934;28;20110;-36
2021/11/01 00:23:17;;;;;;;17.67;2.63;;;;;;;9.28;96.80;99858.66;5116312;28;20451;-36
2021/11/01 00:25:42;;;;;;;10.53;2.33;;;;;;;9.26;96.25;99857.25;5116270;28;20040;-36
2021/11/01 00:28:10;;;;;;;10.90;2.53;;;;;;;9.26;96.09;99858.06;5116255;28;20064;-36
2021/11/01 00:30:36;;;;;;;11.40;2.78;;;;;;;9.20;96.37;99856.38;5115362;28;20019;-36
2021/11/01 00:33:02;;;;;;;9.60;2.40;;;;;;;9.07;96.48;99823.50;5116142;28;20046;-36
2021/11/01 00:35:27;;;;;;;11.20;2.55;;;;;;;9.22;96.76;99862.34;5115766;28;20101;-36
2021/11/01 00:37:52;;;;;;;9.50;2.57;;;;;;;9.15;96.20;99848.19;5115747;28;20023;-36
2021/11/01 00:40:18;;;;;;;15.83;3.67;;;;;;;9.14;96.33;99853.84;5097206;28;20071;-36
2021/11/01 00:42:43;;;;;;;14.97;2.77;;;;;;;9.10;96.04;99850.81;5115597;28;20069;-36
2021/11/01 00:45:11;;;;;;;11.67;2.80;;;;;;;9.10;96.17;99847.31;5115341;28;20085;-36
2021/11/01 00:47:36;;;;;;;12.23;2.58;;;;;;;9.09;95.98;99857.28;5115755;28;20180;-36
2021/11/01 00:50:04;;;;;;;13.63;2.60;;;;;;;8.90;96.36;99835.13;5115655;28;20518;-36
2021/11/01 00:52:30;;;;;;;12.88;3.45;;;;;;;9.00;96.08;99840.69;5115414;28;20023;-36
2021/11/01 00:55:00;;;;;;;;;;;;;;;9.07;96.08;99848.59;5115723;28;20028;-36
2021/11/01 00:57:27;;;;;;;10.38;2.53;;;;;;;8.99;95.69;99839.03;5115380;28;19903;-36
2021/11/01 00:59:52;;;;;;;12.02;2.53;;;;;;;8.98;95.75;99842.00;5115720;28;20019;-36
2021/11/01 01:02:18;;;;;;;11.95;2.42;;;;;;;8.97;96.37;99835.75;5115278;28;20473;-36
2021/11/01 01:04:43;;;;;;;10.23;2.13;;;;;;;8.77;95.57;99797.69;5115394;28;20355;-36
2021/11/01 01:07:09;;;;;;;12.53;2.40;;;;;;;8.90;95.46;99813.56;5115319;28;20023;-36
2021/11/01 01:09:34;;;;;;;13.97;2.50;;;;;;;8.97;95.41;99824.16;5114878;28;20261;-36
2021/11/01 01:12:00;;;;;;;13.18;2.70;;;;;;;8.94;95.73;99830.88;5115313;28;20054;-36
2021/11/01 01:14:27;;;;;;;7.72;1.90;;;;;;;8.90;95.22;99829.72;5115022;28;20093;-36
2021/11/01 01:16:54;;;;;;;13.77;3.40;;;;;;;8.89;95.02;99816.50;5115213;28;20068;-36
2021/11/01 01:19:23;;;;;;;15.30;2.78;;;;;;;8.89;95.57;99828.09;5115309;28;20019;-36
2021/11/01 01:24:32;;;;;;;11.02;2.42;;;;;;;8.89;95.12;99828.09;5115344;28;20118;-36
2021/11/01 01:26:58;;;;;;;15.77;2.78;;;;;;;8.85;95.19;99829.66;5114561;28;20062;-36
2021/11/01 01:29:23;;;;;;;8.63;2.10;;;;;;;8.86;95.77;99823.19;5114719;28;20019;-36
2021/11/01 01:31:49;;;;;;;9.98;2.05;;;;;;;8.81;95.59;99816.91;5114674;28;20088;-36
2021/11/01 01:34:15;;;;;;;12.68;2.28;;;;;;;8.70;95.60;99805.13;5114662;28;20030;-36
2021/11/01 01:36:40;;;;;;;9.73;2.35;;;;;;;8.81;95.89;99822.28;5114976;28;20055;-36
2021/11/01 01:39:05;;;;;;;9.30;2.73;;;;;;;8.78;95.88;99826.28;5114587;28;20024;-36
2021/11/01 01:41:31;;;;;;;12.37;2.53;;;;;;;8.80;96.12;99826.88;5114526;28;20020;-36
2021/11/01 01:43:59;;;;;;;11.35;2.17;;;;;;;8.81;95.11;99822.28;5114696;28;20020;-36
2021/11/01 01:46:27;;;;;;;14.60;2.42;;;;;;;8.78;95.97;99815.50;5114434;28;20038;-36
2021/11/01 01:48:53;;;;;;;10.38;2.58;;;;;;;8.74;95.79;99817.88;5114377;28;20015;-36
2021/11/01 01:51:19;;;;;;;;;;;;;;;8.80;96.34;99815.25;5114432;28;20054;-36
2021/11/01 01:53:45;;;;;;;7.20;2.00;;;;;;;8.74;96.37;99803.59;5114496;28;19907;-36
2021/11/01 01:56:11;;;;;;;14.73;2.88;;;;;;;8.69;96.33;99787.34;5115087;28;20378;-36
2021/11/01 01:58:41;;;;;;;11.43;2.80;;;;;;;8.67;96.45;99778.66;5114574;28;20046;-36
2021/11/01 02:01:12;;;;;;;11.68;2.38;;;;;;;8.71;96.91;99794.09;5127764;27;20059;-36
2021/11/01 02:03:39;;;;;;;9.77;2.78;;;;;;;8.71;96.31;99790.59;5114474;28;20472;-36
2021/11/01 02:06:14;;;;;;;9.80;2.35;;;;;;;8.67;96.18;99784.03;5114067;28;20024;-36
2021/11/01 02:09:04;;;;;;;9.00;1.80;;;;;;;8.75;96.51;99794.44;5115007;28;20035;-36
2021/11/01 02:11:51;;;;;;;10.02;2.72;;;;;;;8.74;96.80;99793.63;5113940;28;20024;-36
2021/11/01 02:14:20;;;;;;;10.13;1.75;;;;;;;8.70;96.84;99784.38;5114815;28;20378;-36
2021/11/01 02:16:49;;;;;;;9.20;2.00;;;;;;;8.69;96.57;99785.44;5114051;28;20024;-36
2021/11/01 02:19:17;;;;;;;11.80;3.15;;;;;;;8.67;97.31;99781.34;5113233;28;20080;-36
2021/11/01 02:21:54;;;;;;;11.15;2.20;;;;;;;8.66;96.82;99774.34;5114084;28;20024;-36
2021/11/01 02:24:25;;;;;;;;;;;;;;;8.72;96.50;99763.38;5114099;28;20016;-36
2021/11/01 02:26:52;;;;;;;9.75;2.20;;;;;;;8.65;96.68;99778.09;5114944;28;19918;-36
2021/11/01 02:29:18;;;;;;;7.28;2.20;;;;;;;8.63;97.33;99775.63;5113921;28;20026;-36
2021/11/01 02:31:44;;;;;;;12.68;3.25;;;;;;;8.62;97.71;99765.91;5113945;28;20024;-36
2021/11/01 02:34:11;;;;;;;11.18;2.20;;;;;;;8.63;97.52;99770.22;5114358;28;20340;-36
2021/11/01 02:36:37;;;;;;;8.32;1.98;;;;;;;8.63;97.90;99758.63;5113474;28;20471;-36
2021/11/01 02:39:02;;;;;;;9.48;2.33;;;;;;;8.65;97.76;99772.69;5113458;28;20020;-36
2021/11/01 02:41:32;;;;;;;11.35;2.42;;;;;;;8.51;97.03;99751.47;5114528;28;20529;-36
2021/11/01 02:44:04;;;;;;;6.90;2.00;;;;;;;8.65;97.41;99778.09;5113440;28;20020;-36
2021/11/01 02:46:30;;;;;;;11.50;3.15;;;;;;;8.62;96.86;99784.78;5113839;28;20061;-36
2021/11/01 02:48:56;;;;;;;10.75;2.20;;;;;;;8.62;97.75;99783.97;5113592;28;20413;-36
2021/11/01 02:51:24;;;;;;;12.20;2.17;;;;;;;8.61;97.96;99782.34;5113530;28;20020;-36
2021/11/01 02:53:51;;;;;;;9.40;1.70;;;;;;;8.59;97.83;99785.28;5113193;28;20524;-36
2021/11/01 02:56:17;;;;;;;9.43;2.58;;;;;;;8.55;98.00;99784.13;5113233;28;20102;-36
2021/11/01 02:58:43;;;;;;;;;;;;;;;8.61;97.83;99777.75;5114561;28;20020;-36
2021/11/01 03:01:14;;;;;;;8.77;2.03;;;;;;;8.55;98.05;99767.16;5113726;28;19907;-36
2021/11/01 03:03:41;;;;;;;10.77;2.80;;;;;;;8.41;98.38;99734.31;5114057;28;20051;-36
2021/11/01 03:06:07;;;;;;;6.07;1.63;;;;;;;8.54;98.87;99763.63;5113630;28;20085;-36
2021/11/01 03:08:33;;;;;;;9.30;2.42;;;;;;;8.46;98.77;99747.88;5114304;28;20019;-36
2021/11/01 03:11:00;;;;;;;10.98;2.85;;;;;;;8.50;98.74;99766.00;5113278;28;20364;-36
2021/11/01 03:13:27;;;;;;;11.05;2.83;;;;;;;8.49;99.29;99760.84;5113672;28;20020;-36
2021/11/01 03:15:55;;;;;;;10.65;2.42;;;;;;;8.43;99.26;99754.53;5113097;28;20452;-36
2021/11/01 03:18:23;;;;;;;10.77;2.33;;;;;;;8.42;99.02;99752.91;5113360;28;20157;-36
2021/11/01 03:20:49;;;;;;;9.00;2.10;;;;;;;8.50;99.15;99757.91;5113565;28;20035;-36
2021/11/01 03:23:20;;;;;;;10.48;2.35;;;;;;;8.52;98.88;99763.03;5113891;28;20023;-36
2021/11/01 03:25:50;;;;;;;6.85;1.95;;;;;;;8.53;99.03;99764.69;5113468;28;20063;-36
2021/11/01 03:28:18;;;;;;;10.75;2.30;;;;;;;8.56;98.97;99763.38;5113226;28;20026;-36
2021/11/01 03:30:46;;;;;;;9.50;2.08;;;;;;;8.52;99.22;99771.13;5098046;28;20437;-36
2021/11/01 03:33:14;;;;;;;12.75;2.45;;;;;;;8.56;99.00;99774.97;5117553;28;20023;-36
2021/11/01 03:35:43;;;;;;;9.07;2.10;;;;;;;8.54;98.52;99778.97;5116852;28;20118;-36
2021/11/01 03:38:10;;;;;;;5.82;1.73;;;;;;;8.54;98.88;99778.97;5117458;28;20347;-36
2021/11/01 03:40:37;;;;;;;10.73;2.13;;;;;;;8.54;98.61;99784.34;5117253;28;20356;-36
2021/11/01 03:43:05;;;;;;;9.55;2.25;;;;;;;8.52;99.07;99773.81;5117004;28;20363;-36
2021/11/01 03:45:34;;;;;;;10.38;2.35;;;;;;;8.54;98.52;99781.66;5116659;28;20027;-36
2021/11/01 03:48:04;;;;;;;6.70;1.85;;;;;;;8.56;98.82;99782.25;5116627;28;20034;-36
2021/11/01 03:53:04;;;;;;;12.00;2.33;;;;;;;8.51;98.60;99783.78;5117125;28;20028;-36
2021/11/01 03:55:29;;;;;;;11.35;1.95;;;;;;;8.51;98.58;99789.19;5116448;28;20035;-36
2021/11/01 03:57:57;;;;;;;8.48;1.95;;;;;;;8.50;98.31;99787.56;5116584;28;20030;-36
2021/11/01 04:00:24;;;;;;;12.15;2.40;;;;;;;8.53;98.65;99780.84;5098565;28;20457;-36
2021/11/01 04:02:50;;;;;;;11.23;3.25;;;;;;;8.52;98.49;99780.03;5116344;28;20023;-36
2021/11/01 04:05:16;;;;;;;;;;;;;;;8.51;98.00;99785.66;5116764;28;20027;-36
2021/11/01 04:07:41;;;;;;;15.82;2.97;;;;;;;8.48;97.96;99789.66;5116286;28;20274;-36
2021/11/01 04:10:08;;;;;;;10.73;2.67;;;;;;;8.49;98.17;99794.00;5116218;28;20047;-36
2021/11/01 04:12:37;;;;;;;7.97;2.00;;;;;;;8.43;98.28;99776.09;5116691;28;20268;-36
2021/11/01 04:15:08;;;;;;;19.73;2.78;;;;;;;8.45;98.79;99787.47;5116368;28;20111;-36
2021/11/01 04:17:48;;;;;;;11.20;2.55;;;;;;;8.45;98.90;99784.78;5116147;28;20460;-36
2021/11/01 04:22:41;;;;;;;13.75;2.97;;;;;;;8.43;98.50;99786.88;5116016;28;20051;-36
2021/11/01 04:25:08;;;;;;;9.45;2.72;;;;;;;8.32;98.33;99762.66;5116271;28;20023;-36
2021/11/01 04:27:35;;;;;;;9.75;2.40;;;;;;;8.38;98.20;99778.69;5116825;28;20108;-36
2021/11/01 04:30:00;;;;;;;;;;;;;;;8.46;98.55;99791.78;5117047;28;20072;-36
2021/11/01 04:32:48;;;;;;;15.82;3.10;;;;;;;8.40;98.30;99778.47;5116116;28;20336;-36
2021/11/01 04:35:26;;;;;;;10.77;2.83;;;;;;;8.34;97.87;99780.22;5115791;28;20059;-36
2021/11/01 04:38:01;;;;;;;14.75;3.42;;;;;;;8.18;98.04;99751.38;5116271;28;20106;-36
2021/11/01 04:53:50;;;;;;;12.73;2.55;;;;;;;8.35;98.20;99771.09;5116022;28;20046;-36
2021/11/01 04:56:23;;;;;;;14.82;3.38;;;;;;;8.37;97.25;99771.69;5115016;28;20478;-36
2021/11/01 04:58:48;;;;;;;9.85;2.13;;;;;;;8.27;97.80;99756.13;5115825;28;20031;-36
2021/11/01 05:01:17;;;;;;;10.77;2.10;;;;;;;8.36;97.53;99767.38;5115174;28;20117;-36
2021/11/01 05:03:44;;;;;;;12.02;2.55;;;;;;;8.33;97.33;99765.13;5115587;28;20352;-36
2021/11/01 05:06:10;;;;;;;18.27;3.58;;;;;;;8.26;97.17;99759.06;5114680;28;20034;-36
2021/11/01 05:08:46;;;;;;;15.90;2.85;;;;;;;8.36;97.50;99769.22;5114705;28;20024;-36
2021/11/01 05:11:20;;;;;;;12.38;2.33;;;;;;;8.25;97.22;99754.75;5114972;28;20364;-36
2021/11/01 05:13:46;;;;;;;12.02;2.47;;;;;;;8.35;97.57;99762.19;5115279;28;20051;-36
2021/11/01 05:16:18;;;;;;;10.57;2.40;;;;;;;8.35;97.36;99770.28;5114945;28;20030;-36
2021/11/01 05:23:51;;;;;;;13.90;2.47;;;;;;;8.30;97.05;99759.41;5114887;28;20038;-36
2021/11/01 05:29:15;;;;;;;12.10;2.28;;;;;;;8.35;97.54;99754.94;5051912;28;20500;-36
2021/11/01 05:31:47;;;;;;;14.57;2.80;;;;;;;8.33;97.09;99754.34;5051565;28;20025;-36
2021/11/01 05:34:17;;;;;;;14.82;2.67;;;;;;;8.34;97.28;99749.75;5051692;28;20056;-36
2021/11/01 05:36:42;;;;;;;12.75;2.75;;;;;;;8.33;96.76;99758.91;5052115;28;20036;-36
2021/11/01 05:39:08;;;;;;;10.40;2.00;;;;;;;8.29;97.05;99758.56;5051717;28;20040;-36
2021/11/01 05:41:34;;;;;;;15.17;2.43;;;;;;;8.29;97.25;99761.25;5051644;28;20552;-36
2021/11/01 05:44:00;;;;;;;15.85;2.60;;;;;;;8.27;97.60;99761.50;5051442;28;20508;-36
2021/11/01 05:46:33;;;;;;;12.45;2.75;;;;;;;8.30;97.00;99760.22;5051734;28;20033;-36
2021/11/01 05:48:59;;;;;;;9.85;2.13;;;;;;;8.31;96.82;99774.50;5051653;28;20079;-36
2021/11/01 05:51:24;;;;;;;17.27;2.92;;;;;;;8.31;96.94;99788.78;5052067;28;20112;-36
2021/11/01 05:53:54;;;;;;;14.47;2.80;;;;;;;8.31;97.00;99786.09;5050890;28;20443;-36
2021/11/01 05:56:29;;;;;;;13.07;2.65;;;;;;;8.26;97.48;99775.22;5051277;28;20025;-36
2021/11/01 06:04:02;;;;;;;13.55;2.45;;;;;;;8.26;96.70;99804.84;5060895;28;20035;-36
2021/11/01 06:09:30;;;;;;;15.63;2.83;;;;;;;8.24;96.86;99810.47;5114557;28;20489;-36
2021/11/01 06:14:39;;;;;;;13.68;2.50;;;;;;;8.18;96.48;99816.00;5114045;28;20034;-36
2021/11/01 06:17:05;;;;;;;10.53;2.20;;;;;;;8.17;96.69;99807.13;5114451;28;20025;-36
2021/11/01 06:19:30;;;;;;;13.97;3.17;;;;;;;8.22;96.33;99817.16;5113769;28;20028;-36
2021/11/01 06:21:56;;;;;;;13.63;2.80;;;;;;;8.14;96.95;99809.47;5114264;28;20046;-36
2021/11/01 06:27:09;;;;;;;16.60;2.90;;;;;;;8.24;97.06;99826.63;5113833;28;20185;-36
2021/11/01 06:29:48;;;;;;;11.82;2.70;;;;;;;8.20;96.64;99835.47;5113518;28;20024;-36
2021/11/01 06:32:26;;;;;;;14.13;2.70;;;;;;;8.17;96.89;99833.22;5113860;28;20019;-36
2021/11/01 07:17:33;;;;;;;15.70;2.83;;;;;;;8.23;96.75;99867.28;5074812;28;20033;-37
2021/11/01 07:25:35;;;;;;;9.70;2.20;;;;;;;8.36;96.36;99885.03;5074844;28;20505;-37
2021/11/01 08:28:33;;;;;;;11.88;2.70;;;;;;;9.16;91.44;99897.56;5033255;28;20061;-37
2021/11/01 08:46:43;;;;;;;11.57;3.10;;;;;;;9.66;89.17;99907.50;5032929;28;20048;-36
2021/11/01 09:07:41;;;;;;;10.48;3.25;;;;;;;9.73;87.83;99902.75;5094975;28;20353;-36
2021/11/01 09:13:11;;;;;;;12.50;2.17;;;;;;;9.77;87.19;99888.53;5095098;28;20452;-37
2021/11/01 09:26:50;;;;;;;8.30;1.83;;;;;;;10.16;84.19;99874.97;5032310;28;20053;-37
2021/11/01 09:29:25;;;;;;;15.75;3.50;;;;;;;10.18;84.44;99870.13;5032307;28;20037;-37
2021/11/01 09:42:32;;;;;;;9.18;2.45;;;;;;;10.60;82.74;99890.38;5032460;28;20488;-37
2021/11/01 09:44:59;;;;;;;11.00;2.15;;;;;;;10.61;82.21;99889.31;5031737;28;20558;-35
2021/11/01 09:47:25;;;;;;;8.30;1.83;;;;;;;10.57;82.36;99887.09;5031839;28;20032;-35
2021/11/01 09:49:51;;;;;;;9.27;2.40;;;;;;;10.62;83.07;99899.84;5031538;28;20045;-36
2021/11/01 09:52:16;;;;;;;11.40;2.25;;;;;;;10.63;82.80;99906.06;5031577;28;20460;-36
2021/11/01 09:54:42;;;;;;;6.75;2.10;;;;;;;10.51;82.57;99887.31;5031987;28;20037;-36
2021/11/01 09:57:22;;;;;;;9.57;2.08;;;;;;;10.48;82.53;99887.81;5038866;28;20076;-36
2021/11/01 09:59:48;;;;;;;12.63;2.55;;;;;;;10.48;82.07;99907.53;5094711;28;20107;-36
2021/11/01 10:02:17;;;;;;;10.30;2.58;;;;;;;10.49;82.63;99914.59;5093684;28;20028;-36
2021/11/01 10:04:44;;;;;;;9.27;2.20;;;;;;;10.58;82.92;99914.94;5094299;28;20034;-36
2021/11/01 10:07:23;;;;;;;10.23;1.90;;;;;;;10.72;82.25;99905.38;5093834;28;20027;-36
2021/11/01 10:09:55;;;;;;;11.15;1.83;;;;;;;10.80;81.13;99920.31;5093452;28;20016;-36
2021/11/01 10:12:32;;;;;;;8.40;1.85;;;;;;;10.96;81.19;99907.75;5093577;28;20444;-36
2021/11/01 10:17:34;;;;;;;7.05;1.38;;;;;;;11.07;78.89;99901.38;5093964;28;20107;-36
2021/11/01 10:17:58;;;;;;;8.82;1.70;;;;;;;11.12;78.08;99904.13;5093823;28;20031;-36
2021/11/01 10:20:23;;;;;;;7.60;1.73;;;;;;;11.01;77.59;99905.09;5093594;28;20035;-36
2021/11/01 10:22:49;;;;;;;6.65;1.60;;;;;;;11.04;78.26;99913.53;5094122;28;20032;-37
2021/11/01 10:25:17;;;;;;;7.70;1.97;;;;;;;10.98;78.63;99906.44;5093813;28;20057;-37
2021/11/01 10:27:53;;;;;;;6.00;1.60;;;;;;;11.03;78.58;99917.31;5093846;28;20153;-36
2021/11/01 10:30:31;;;;;;;9.00;1.52;;;;;;;11.06;79.14;99914.09;5093527;28;20114;-36
2021/11/01 10:33:04;;;;;;;9.45;2.88;;;;;;;10.89;79.02;99883.63;5093476;28;20031;-36
2021/11/01 10:35:32;;;;;;;11.00;2.25;;;;;;;11.09;78.44;99907.34;5093161;28;20023;-36
2021/11/01 10:38:25;;;;;;;10.88;2.97;;;;;;;11.12;79.08;99906.81;5093838;28;20016;-36
2021/11/01 11:13:26;;;;;;;5.28;1.48;;;;;;;11.62;74.07;99902.09;5057657;28;20115;-36
2021/11/01 11:15:56;;;;;;;8.02;1.90;;;;;;;11.79;76.04;99900.81;5057290;28;20032;-36
2021/11/01 11:33:59;;;;;;;8.73;1.47;;;;;;;12.22;73.37;99920.59;5100297;28;20039;-36
2021/11/01 11:50:37;;;;;;;8.88;1.75;;;;;;;11.69;74.08;99892.66;5035765;28;20049;-36
2021/11/01 11:53:14;;;;;;;;;;;;;;;11.81;73.90;99906.81;5034685;28;20179;-36
2021/11/01 11:55:41;;;;;;;7.00;1.70;;;;;;;11.86;72.60;99897.94;5033659;28;19971;-37
2021/11/01 11:58:13;;;;;;;8.48;1.42;;;;;;;11.83;73.14;99898.44;5034450;28;20409;-36
2021/11/01 12:00:39;;;;;;;4.47;1.20;;;;;;;11.81;72.48;99900.59;5033879;28;20109;-36
2021/11/01 12:03:19;;;;;;;6.18;1.45;;;;;;;11.78;73.55;99901.91;5034339;28;20022;-36
2021/11/01 12:06:10;;;;;;;10.48;2.00;;;;;;;11.76;73.72;99893.25;5034043;28;20029;-36
2021/11/01 12:08:39;;;;;;;8.05;1.80;;;;;;;11.68;74.15;99887.50;5033473;28;20033;-36
2021/11/01 12:19:00;;;;;;;6.90;1.80;;;;;;;11.99;72.04;99885.78;5034144;28;20033;-36
2021/11/01 12:21:27;;;;;;;11.43;2.53;;;;;;;11.97;72.04;99883.34;5034026;28;20039;-36
2021/11/01 12:23:54;;;;;;;7.35;1.98;;;;;;;12.03;71.16;99897.75;5055966;28;20096;-36
2021/11/01 12:26:23;;;;;;;9.57;2.15;;;;;;;12.09;72.02;99883.94;5095993;28;20041;-36
2021/11/01 12:28:59;;;;;;;6.55;1.38;;;;;;;12.04;71.83;99883.09;5095377;28;20032;-36
2021/11/01 12:31:27;;;;;;;10.57;2.65;;;;;;;12.02;72.73;99879.88;5095216;28;20020;-36
2021/11/01 12:36:58;;;;;;;8.45;1.80;;;;;;;12.08;72.29;99881.50;5072958;28;20040;-36
2021/11/01 12:39:43;;;;;;;5.50;1.83;;;;;;;11.93;72.10;99849.75;5072741;28;20025;-36
2021/11/01 12:58:28;;;;;;;8.55;1.45;;;;;;;12.23;69.84;99857.16;5072799;28;20083;-36
2021/11/01 13:00:53;;;;;;;5.85;1.17;;;;;;;12.29;70.21;99858.81;5072524;28;20068;-36
2021/11/01 13:03:21;;;;;;;7.18;2.00;;;;;;;12.29;70.26;99869.66;5071856;28;20024;-36
2021/11/01 13:05:54;;;;;;;7.00;1.40;;;;;;;12.17;70.15;99849.31;5072233;28;20071;-36
2021/11/01 13:08:27;;;;;;;6.40;1.52;;;;;;;12.28;70.68;99857.19;5073023;28;20044;-37
2021/11/01 13:10:57;;;;;;;9.30;1.45;;;;;;;12.37;71.83;99855.59;5072129;28;20036;-36
2021/11/01 13:19:15;;;;;;;5.82;1.60;;;;;;;12.37;70.17;99862.91;5052622;28;20035;-36
2021/11/01 13:24:35;;;;;;;5.60;1.42;;;;;;;12.44;68.81;99866.19;5052049;28;20029;-36
2021/11/01 13:27:15;;;;;;;7.85;1.50;;;;;;;12.45;69.91;99861.59;5051995;28;20065;-36
2021/11/01 13:38:06;;;;;;;7.28;2.35;;;;;;;12.37;70.04;99868.34;5051946;28;20037;-36
2021/11/01 13:40:42;;;;;;;7.80;1.55;;;;;;;12.31;69.52;99861.28;5052472;28;20024;-36
2021/11/01 13:43:08;;;;;;;7.32;2.00;;;;;;;12.28;70.66;99859.09;5051623;28;20033;-36
2021/11/01 13:45:33;;;;;;;16.17;1.80;;;;;;;12.29;69.97;99864.22;5051635;28;20032;-36
2021/11/01 13:48:00;;;;;;;6.65;1.70;;;;;;;12.23;69.53;99867.19;5052173;28;20040;-37
2021/11/01 13:50:38;;;;;;;10.45;1.67;;;;;;;12.12;68.95;99860.94;5073969;28;20320;-37
2021/11/01 13:53:12;;;;;;;5.18;1.73;;;;;;;12.16;69.55;99872.06;5094614;28;20020;-36
2021/11/01 13:58:31;;;;;;;8.52;2.10;;;;;;;11.98;71.87;99840.81;5094296;28;20028;-36
2021/11/01 14:14:44;;;;;;;4.80;1.20;;;;;;;11.96;69.29;99884.44;5051217;28;20036;-36
2021/11/01 15:10:58;;;;;;;9.30;2.03;;;;;;;11.59;72.87;99847.34;5093319;28;20368;-36
2021/11/01 15:39:42;;;;;;;6.72;1.40;;;;;;;11.33;74.02;99856.41;4956559;28;20492;-36
2021/11/01 16:17:58;;;;;;;7.90;1.60;;;;;;;10.89;77.36;99912.56;5033496;28;20062;-36
2021/11/01 16:20:24;;;;;;;2.80;0.60;;;;;;;10.65;77.32;99917.47;5096089;28;20498;-37
2021/11/01 16:22:58;;;;;;;0.95;0.50;;;;;;;10.42;78.62;99915.84;5095894;28;20027;-36
2021/11/01 16:25:24;;;;;;;2.70;0.80;;;;;;;10.22;79.89;99910.97;5095598;28;20028;-36
2021/11/01 16:27:50;;;;;;;2.33;0.70;;;;;;;10.16;81.18;99929.00;5096313;28;20020;-36
2021/11/01 16:30:19;;;;;;;2.50;0.63;;;;;;;10.06;82.18;99928.88;5096126;28;20463;-36
2021/11/01 16:32:51;;;;;;;1.80;0.60;;;;;;;9.92;84.20;99924.91;5095562;28;20016;-36
2021/11/01 16:35:22;;;;;;;4.43;1.30;;;;;;;9.89;84.42;99923.50;5095800;28;20326;-39
2021/11/01 16:38:16;;;;;;;5.55;1.95;;;;;;;9.85;84.99;99921.56;5094879;28;20418;-36
2021/11/01 16:40:39;;;;;;;2.22;0.98;;;;;;;9.79;85.62;99926.88;5095660;28;20027;-36
2021/11/01 16:43:13;;;;;;;3.70;1.30;;;;;;;9.71;86.08;99918.38;5096019;28;20024;-37
2021/11/01 16:45:39;;;;;;;2.38;1.00;;;;;;;9.52;86.57;99907.06;5095456;28;20043;-38
2021/11/01 16:48:07;;;;;;;1.75;0.77;;;;;;;9.54;86.88;99911.13;5095391;28;20448;-37
2021/11/01 16:50:33;;;;;;;1.65;0.70;;;;;;;9.49;87.03;99907.53;5095210;28;20022;-37
2021/11/01 16:52:59;;;;;;;1.38;0.80;;;;;;;9.38;87.47;99914.66;5095210;28;20120;-37
2021/11/01 16:55:28;;;;;;;2.55;1.23;;;;;;;9.38;87.94;99911.97;5095076;28;20056;-36
2021/11/01 16:57:57;;;;;;;1.42;0.70;;;;;;;9.24;88.16;99903.38;5095251;28;20026;-37
2021/11/01 17:00:29;;;;;;;2.45;0.73;;;;;;;9.17;88.63;99900.00;5095015;28;20031;-37
2021/11/01 17:05:54;;;;;;;2.15;0.90;;;;;;;9.07;89.38;99910.63;5095376;28;20028;-37
2021/11/01 17:27:10;;;;;;;8.15;4.55;;;;;;;8.92;92.08;99938.13;5094863;28;20052;-37
2021/11/01 17:35:29;;;;;;;4.70;2.80;;;;;;;8.95;91.73;99951.16;5094838;28;20526;-37
2021/11/01 18:41:46;;;;;;;4.10;1.70;;;;;;;8.42;95.13;99978.41;5093910;28;20544;-37
2021/11/01 18:52:11;;;;;;;2.92;1.60;;;;;;;8.26;95.36;99969.97;5093221;28;20098;-37
2021/11/01 18:54:39;;;;;;;2.95;2.15;;;;;;;8.33;95.58;99979.78;5093702;28;20326;-37
2021/11/01 18:57:05;;;;;;;3.45;1.80;;;;;;;8.37;96.28;99975.59;5093777;28;20100;-37
2021/11/01 18:59:35;;;;;;;3.60;2.00;;;;;;;8.23;95.90;99964.22;5093206;28;20162;-36
2021/11/01 19:04:54;;;;;;;4.20;2.30;;;;;;;8.29;96.47;99981.31;5097713;28;20038;-37
2021/11/01 19:07:30;;;;;;;5.20;2.60;;;;;;;8.25;95.96;99979.13;5097927;28;20020;-37
2021/11/01 19:10:15;;;;;;;6.55;2.55;;;;;;;8.26;96.29;99978.06;5098016;28;20039;-37
2021/11/01 20:05:15;;;;;;;6.28;3.30;;;;;;;7.86;96.64;99986.06;5095803;28;20084;-36
2021/11/01 21:25:39;;;;;;;8.93;3.40;;;;;;;7.64;99.66;99988.47;5012877;28;20053;-36
2021/11/01 21:28:04;;;;;;;10.70;3.37;;;;;;;7.69;99.75;99990.47;5012483;28;20370;-37
2021/11/01 21:30:30;;;;;;;6.87;3.40;;;;;;;7.61;98.12;99990.81;5014605;28;20061;-36
2021/11/01 21:32:55;;;;;;;9.02;3.92;;;;;;;7.63;99.31;99983.34;5095082;28;20012;-37
2021/11/01 21:35:27;;;;;;;10.07;4.00;;;;;;;7.48;99.91;99963.09;5094017;28;20020;-37
2021/11/01 21:37:52;;;;;;;8.02;3.60;;;;;;;7.58;100.00;99975.16;5094338;28;20028;-36
2021/11/01 21:40:17;;;;;;;13.33;3.80;;;;;;;7.49;99.15;99970.09;5094259;28;20020;-37
2021/11/01 21:42:43;;;;;;;7.20;3.77;;;;;;;7.54;99.71;99976.66;5094476;28;20089;-37
2021/11/01 21:45:10;;;;;;;10.82;4.25;;;;;;;7.50;99.98;99976.28;5093763;28;20102;-37
2021/11/01 21:47:36;;;;;;;6.75;3.55;;;;;;;7.46;99.53;99965.16;5094560;28;20318;-37
2021/11/01 21:50:04;;;;;;;8.30;4.10;;;;;;;7.49;100.00;99970.09;5094015;28;20038;-36
2021/11/01 21:52:29;;;;;;;8.65;4.30;;;;;;;7.49;99.59;99971.97;5093863;28;20027;-37
2021/11/01 21:54:57;;;;;;;11.20;4.10;;;;;;;7.46;100.00;99973.25;5093956;28;20020;-36
2021/11/01 22:21:24;;;;;;;8.35;4.07;;;;;;;7.10;98.62;99933.91;5093805;28;20046;-35
2021/11/01 22:43:05;;;;;;;6.50;3.55;;;;;;;7.02;98.05;99936.91;5050780;28;20036;-35
2021/11/01 22:56:13;;;;;;;5.45;2.90;;;;;;;7.00;98.55;99951.63;5050604;28;20092;-36
2021/11/01 22:58:41;;;;;;;6.43;3.03;;;;;;;6.99;98.91;99958.06;5035983;28;20044;-36
2021/11/01 23:01:25;;;;;;;5.65;3.17;;;;;;;6.99;98.84;99950.00;5050931;28;20063;-36
2021/11/01 23:33:22;;;;;;;8.00;3.25;;;;;;;6.79;98.01;99940.34;5093392;28;20111;-36
2021/11/01 23:35:49;;;;;;;6.70;3.20;;;;;;;6.86;98.14;99946.44;5092697;28;20039;-36
2021/11/01 23:38:16;;;;;;;7.43;3.40;;;;;;;6.82;98.04;99955.19;5092749;28;20152;-36
2021/11/01 23:40:41;;;;;;;8.52;3.35;;;;;;;6.73;97.66;99949.31;5092926;28;20054;-36
2021/11/01 23:43:07;;;;;;;7.13;3.50;;;;;;;6.64;97.03;99940.75;5093231;28;20404;-36
2021/11/01 23:45:37;;;;;;;6.50;3.20;;;;;;;6.53;97.78;99929.94;5092832;28;20446;-36
2021/11/01 23:48:03;;;;;;;8.82;3.65;;;;;;;6.57;97.88;99944.56;5096654;28;20026;-36
2021/11/01 23:50:33;;;;;;;6.68;3.63;;;;;;;6.68;98.03;99949.16;5096861;28;20428;-36
2021/11/01 23:53:05;;;;;;;7.95;3.28;;;;;;;6.63;97.64;99949.84;5096750;28;20028;-36
2021/11/01 23:55:30;;;;;;;6.20;3.00;;;;;;;6.65;97.63;99955.81;5096171;28;20100;-36
2021/11/01 23:57:56;;;;;;;9.80;3.70;;;;;;;6.62;97.78;99944.72;5096474;28;20070;-36
